Highland, New York
Current Conditions -  °F | °C
As of 5:53 AM on Wednesday 22 Oct 2014 (Local Time) from KPOU Reporting Station
Overcast Overcast  
Wind Chill: 52°   Ceiling: 1800
Heat Index: 52°   Visibility: 10mi
Dew Point: 48°   Wind: 9mph
Humidity: 86%   Direction: 360°N
Pressure: 29.96"   Gusts: NA
Location:  41.72°N, 73.96°W
Report Text: KPOU 220953Z AUTO 36008KT 10SM FEW010 OVC018 11/09 A2996 RMK AO2 SLP141 T01110089 TSNO
Loading
Personal Weather Stations






























Interactive Weather Map New forecast layout! Learn more

10-Day Weather Forecast

Advertisements
Track Severe Weather on mobile